Weather at John F Kennedy International Airport

Public forecast

Using degrees Fahrenheit for public forecast. Weather courtesy of forecast.io.

Current aviation weather report (METAR) for John F Kennedy International Airport

Retrieved 2021/04/20 22:51 UTC (30 minutes ago):

KJFK 202251Z 19023G31KT 10SM FEW070 FEW250 16/07 A2988 RMK AO2 PK WND 19031/2244 SLP117 T01560072

Aviation forecast (TAF) for John F Kennedy International Airport

Retrieved 2021/04/20 18:27 UTC (5 hours ago):

TAF KJFK 201720Z 2018/2124 20012G20KT P6SM SCT250 FM202300 19012KT P6SM FEW250 FM211600 18016G24KT P6SM SCT060 FM211900 19017G26KT P6SM -SHRA BKN045 TEMPO 2119/2121 4SM -TSRA OVC035CB FM212100 27013G23KT P6SM OVC045